^^
Grace C. Lehan Memorial Weather Station Historical Data
Daily Summary for April 10, 2021 Units:  Metric    English   Both
Daily Weekly Monthly Yearly
  High: Low: Average:
Temperature: 17.1 °C 4.8 °C 12.8 °C
Dew Point: 10.4 °C -2.6 °C 4.8 °C
Humidity: 84% 30% 61%
Wind Speed: 18.7km/h 0km/h 2.9km/h
Wind Gust: 41.8km/h - -
Wind- - NW
Pressure: 1024.3 hPa 1013.1 hPa -
Precipitation: 0 mm    
 
 
Tabular Data for April 10, 2021
Time Temperature Dew Point Pressure Wind Wind Speed Wind Gust Humidity Rainfall Rate (Hourly) solar
00:04 13.3 °C 8.8 °C 1015.1 hPa Calm   9.7 km/h 74% 0 mm 0 W/m2
00:09 13.3 °C 8.8 °C 1015.1 hPa West 0.6 km/h 4.8 km/h 74% 0 mm 0 W/m2
00:14 13.3 °C 8.7 °C 1014.8 hPa Calm   4.8 km/h 74% 0 mm 0 W/m2
00:19 13.3 °C 8.8 °C 1014.8 hPa West 0.2 km/h 4.8 km/h 74.3% 0 mm 0 W/m2
00:24 13.2 °C 8.9 °C 1014.8 hPa West 0.3 km/h 4.8 km/h 75% 0 mm 0 W/m2
00:29 13.2 °C 8.8 °C 1014.8 hPa Calm   4.8 km/h 75% 0 mm 0 W/m2
00:34 13.2 °C 8.8 °C 1014.8 hPa West 1 km/h 6.4 km/h 75% 0 mm 0 W/m2
00:39 13.2 °C 8.8 °C 1014.8 hPa West 0.2 km/h 6.4 km/h 75% 0 mm 0 W/m2
00:44 13.2 °C 8.8 °C 1014.8 hPa West 0.6 km/h 6.4 km/h 75% 0 mm 0 W/m2
00:49 13.2 °C 8.9 °C 1014.8 hPa West 1.8 km/h 8 km/h 75% 0 mm 0 W/m2
00:54 13.2 °C 8.9 °C 1014.8 hPa West 0.5 km/h 8 km/h 75% 0 mm 0 W/m2
00:59 13.3 °C 8.9 °C 1014.8 hPa West 0.8 km/h 8 km/h 75% 0 mm 0 W/m2
01:03 13.3 °C 9 °C 1014.8 hPa West 1 km/h 8 km/h 75% 0 mm 0 W/m2
01:30 13.5 °C 8.9 °C 1014.4 hPa Calm   9.7 km/h 74% 0 mm 0 W/m2
02:00 13.4 °C 9.1 °C 1014.1 hPa Calm   3.2 km/h 75% 0 mm 0 W/m2
02:30 12.9 °C 8.9 °C 1014.1 hPa Calm     77% 0 mm 0 W/m2
03:00 12.7 °C 8.9 °C 1013.8 hPa Calm     78% 0 mm 0 W/m2
03:30 12.4 °C 8.8 °C 1013.4 hPa Calm     79% 0 mm 0 W/m2
04:04 11.8 °C 8.7 °C 1013.4 hPa Calm     81% 0 mm 0 W/m2
04:09 11.8 °C 8.8 °C 1013.4 hPa Calm     81.5% 0 mm 0 W/m2
04:14 11.8 °C 8.8 °C 1013.4 hPa Calm     82% 0 mm 0 W/m2
04:19 11.8 °C 8.8 °C 1013.4 hPa Calm     82% 0 mm 0 W/m2
04:24 11.8 °C 8.8 °C 1013.4 hPa Calm     82% 0 mm 0 W/m2
04:29 11.8 °C 8.8 °C 1013.4 hPa Calm     82% 0 mm 0 W/m2
04:34 11.7 °C 8.8 °C 1013.4 hPa Calm     82% 0 mm 0 W/m2
04:39 11.7 °C 8.7 °C 1013.4 hPa Calm     82% 0 mm 0 W/m2
04:44 11.6 °C 8.7 °C 1013.4 hPa Calm     82% 0 mm 0 W/m2
04:49 11.6 °C 8.7 °C 1013.4 hPa Calm     82.7% 0 mm 0 W/m2
04:54 11.6 °C 8.8 °C 1013.4 hPa Calm     83% 0 mm 0 W/m2
04:59 11.5 °C 8.7 °C 1013.4 hPa Calm     83% 0 mm 0 W/m2
05:04 11.4 °C 8.7 °C 1013.4 hPa Calm     83% 0 mm 0 W/m2
05:09 11.4 °C 8.7 °C 1013.4 hPa Calm     83% 0 mm 0 W/m2
05:14 11.4 °C 8.8 °C 1013.4 hPa Calm     83.8% 0 mm 0 W/m2
05:19 11.5 °C 8.7 °C 1013.4 hPa Calm     83.2% 0 mm 0 W/m2
05:24 11.5 °C 8.7 °C 1013.4 hPa Calm     83% 0 mm 0 W/m2
05:29 11.6 °C 8.8 °C 1013.1 hPa Calm     83% 0 mm 0 W/m2
05:34 11.6 °C 8.8 °C 1013.1 hPa Calm     83% 0 mm 0 W/m2
05:39 11.6 °C 8.8 °C 1013.1 hPa Calm     83.1% 0 mm 0 W/m2
05:44 11.6 °C 8.8 °C 1013.1 hPa Calm     83% 0 mm 0 W/m2
05:49 11.6 °C 8.8 °C 1013.1 hPa Calm     83% 0 mm 0 W/m2
05:54 11.6 °C 8.8 °C 1013.1 hPa Calm     83% 0 mm 0 W/m2
05:59 11.6 °C 8.8 °C 1013.1 hPa Calm     83% 0 mm 0 W/m2
06:04 11.6 °C 8.8 °C 1013.1 hPa Calm     83% 0 mm 0 W/m2
06:09 11.6 °C 8.8 °C 1013.4 hPa Calm   1.6 km/h 83% 0 mm 0 W/m2
06:14 11.5 °C 8.7 °C 1013.4 hPa Calm   1.6 km/h 83% 0 mm 0 W/m2
06:19 11.5 °C 8.7 °C 1013.4 hPa Calm   1.6 km/h 83% 0 mm 0 W/m2
06:24 11.4 °C 8.7 °C 1013.4 hPa Calm   1.6 km/h 83% 0 mm 0 W/m2
06:29 11.4 °C 8.7 °C 1013.4 hPa Calm   1.6 km/h 83% 0 mm 0 W/m2
06:34 11.4 °C 8.6 °C 1013.8 hPa Calm   1.6 km/h 83% 0 mm 0 W/m2
06:39 11.3 °C 8.6 °C 1013.8 hPa Calm     83% 0 mm 0 W/m2
06:44 11.3 °C 8.6 °C 1013.8 hPa Calm     83.6% 0 mm 0 W/m2
06:49 11.2 °C 8.6 °C 1014.1 hPa Calm     84% 0 mm 11 W/m2
06:54 11.2 °C 8.6 °C 1014.1 hPa Calm     84% 0 mm 18 W/m2
06:59 11.3 °C 8.7 °C 1014.1 hPa Calm     84% 0 mm 18 W/m2
07:04 11.3 °C 8.7 °C 1014.1 hPa Calm     84% 0 mm 14 W/m2
07:09 11.3 °C 8.7 °C 1014.4 hPa Calm     84% 0 mm 16 W/m2
07:14 11.3 °C 8.7 °C 1014.4 hPa Calm     84% 0 mm 25 W/m2
07:19 11.3 °C 8.7 °C 1014.4 hPa Calm     84% 0 mm 25 W/m2
07:24 11.4 °C 8.8 °C 1014.4 hPa Calm     84% 0 mm 16 W/m2
07:29 11.4 °C 8.8 °C 1014.8 hPa Calm     84% 0 mm 14 W/m2
07:34 11.4 °C 8.8 °C 1014.8 hPa WNW 0.2 km/h 3.2 km/h 84% 0 mm 16 W/m2
07:39 11.5 °C 8.9 °C 1014.8 hPa Calm   3.2 km/h 84% 0 mm 16 W/m2
07:44 11.6 °C 8.9 °C 1015.1 hPa Calm   3.2 km/h 84% 0 mm 30 W/m2
07:49 11.6 °C 9 °C 1015.1 hPa WNW 0.2 km/h 3.2 km/h 84% 0 mm 33 W/m2
07:54 11.7 °C 9.1 °C 1015.1 hPa WNW 0.2 km/h 4.8 km/h 84% 0 mm 32 W/m2
07:59 11.8 °C 9.1 °C 1015.1 hPa Calm   4.8 km/h 83.1% 0 mm 86 W/m2
08:04 12.1 °C 9.3 °C 1014.8 hPa Calm     82.8% 0 mm 74 W/m2
08:09 12.3 °C 9.3 °C 1014.8 hPa Calm     82% 0 mm 74 W/m2
08:14 12.6 °C 9.6 °C 1014.8 hPa Calm     82% 0 mm 207 W/m2
08:19 12.8 °C 9.7 °C 1014.8 hPa Calm   1.6 km/h 81.4% 0 mm 279 W/m2
08:24 13.3 °C 10.1 °C 1014.8 hPa WNW 0.3 km/h 3.2 km/h 80.7% 0 mm 299 W/m2
08:29 14 °C 10.3 °C 1014.8 hPa WNW 2.1 km/h 9.7 km/h 78.8% 0 mm 294 W/m2
08:34 14.6 °C 10.3 °C 1015.1 hPa NW 2.6 km/h 9.7 km/h 75.6% 0 mm 265 W/m2
08:39 15 °C 10.3 °C 1015.1 hPa NW 2.9 km/h 8 km/h 73.3% 0 mm 220 W/m2
08:44 15.1 °C 10.1 °C 1015.1 hPa NW 0.3 km/h 8 km/h 72% 0 mm 35 W/m2
08:49 15 °C 10 °C 1015.1 hPa Calm   8 km/h 72% 0 mm 46 W/m2
08:54 14.9 °C 10 °C 1015.1 hPa NW 0.2 km/h 8 km/h 72.4% 0 mm 67 W/m2
08:59 14.8 °C 10.1 °C 1015.1 hPa NW 0.3 km/h 8 km/h 73% 0 mm 81 W/m2
09:04 14.7 °C 9.9 °C 1015.1 hPa NW 0.8 km/h 8 km/h 73.2% 0 mm 134 W/m2
09:09 14.6 °C 10.1 °C 1015.1 hPa NW 0.8 km/h 6.4 km/h 74% 0 mm 149 W/m2
09:14 14.6 °C 10.2 °C 1015.1 hPa NW 2.4 km/h 8 km/h 75% 0 mm 111 W/m2
09:19 14.6 °C 10.2 °C 1015.1 hPa NNW 2.6 km/h 8 km/h 74.8% 0 mm 118 W/m2
09:24 14.5 °C 10.1 °C 1015.5 hPa NNW 1.6 km/h 8 km/h 74.9% 0 mm 102 W/m2
09:29 14.5 °C 10.1 °C 1015.5 hPa NNW 0.3 km/h 8 km/h 75% 0 mm 120 W/m2
09:34 14.6 °C 10.2 °C 1015.5 hPa NNW 0.8 km/h 8 km/h 75.2% 0 mm 125 W/m2
09:39 14.6 °C 10.2 °C 1015.5 hPa NNW 1.4 km/h 6.4 km/h 75% 0 mm 86 W/m2
09:44 14.6 °C 10.2 °C 1015.5 hPa WNW 5.3 km/h 17.7 km/h 75% 0 mm 241 W/m2
09:49 14.7 °C 10.3 °C 1015.5 hPa NW 4.7 km/h 17.7 km/h 75% 0 mm 230 W/m2
09:54 14.9 °C 10.4 °C 1015.5 hPa WNW 6 km/h 22.5 km/h 74.8% 0 mm 206 W/m2
09:59 15.1 °C 10.4 °C 1015.5 hPa NW 10.8 km/h 22.5 km/h 73.4% 0 mm 169 W/m2
10:04 15.3 °C 10.2 °C 1015.8 hPa NW 12.7 km/h 30.6 km/h 71.1% 0 mm 343 W/m2
10:09 15.7 °C 10.1 °C 1015.8 hPa NW 11.4 km/h 30.6 km/h 69.6% 0 mm 480 W/m2
10:14 15.9 °C 10.3 °C 1015.8 hPa NW 5.1 km/h 30.6 km/h 69% 0 mm 564 W/m2
10:19 16.4 °C 10.4 °C 1015.8 hPa NW 9 km/h 30.6 km/h 67.4% 0 mm 563 W/m2
10:24 16.6 °C 10.1 °C 1015.8 hPa NW 5 km/h 30.6 km/h 65% 0 mm 262 W/m2
10:29 16.4 °C 9.9 °C 1016.1 hPa NW 3.9 km/h 30.6 km/h 65.3% 0 mm 561 W/m2
10:34 16.4 °C 10.1 °C 1016.1 hPa NW 10.3 km/h 30.6 km/h 65.9% 0 mm 582 W/m2
10:39 16.4 °C 9.9 °C 1016.1 hPa NW 5.5 km/h 25.7 km/h 65% 0 mm 526 W/m2
10:44 16.4 °C 9.9 °C 1016.1 hPa WNW 2.7 km/h 25.7 km/h 65.3% 0 mm 571 W/m2
10:49 16.6 °C 9.8 °C 1015.8 hPa NNW 5.1 km/h 25.7 km/h 64% 0 mm 494 W/m2
10:54 16.6 °C 9.6 °C 1015.8 hPa NW 5.8 km/h 25.7 km/h 63% 0 mm 353 W/m2
10:59 16.6 °C 9.4 °C 1015.8 hPa NW 7.6 km/h 29 km/h 62.9% 0 mm 299 W/m2
11:04 16.4 °C 9.3 °C 1015.8 hPa NW 1.8 km/h 29 km/h 63% 0 mm 350 W/m2
11:09 16.4 °C 9.4 °C 1015.8 hPa NW 6.3 km/h 25.7 km/h 63.6% 0 mm 350 W/m2
11:14 16.2 °C 9.1 °C 1015.8 hPa NW 8.4 km/h 29 km/h 62.4% 0 mm 137 W/m2
11:19 16.1 °C 9.2 °C 1015.8 hPa WNW 4.5 km/h 29 km/h 63.6% 0 mm 211 W/m2
11:24 16.1 °C 9.2 °C 1015.8 hPa NW 5.8 km/h 29 km/h 63.6% 0 mm 378 W/m2
11:29 16.2 °C 9.1 °C 1015.8 hPa NW 10.1 km/h 29 km/h 62.9% 0 mm 325 W/m2
11:34 16.2 °C 9.2 °C 1015.8 hPa WNW 6.8 km/h 29 km/h 63.3% 0 mm 316 W/m2
11:39 16.4 °C 9.2 °C 1015.8 hPa WNW 7.4 km/h 24.1 km/h 62.2% 0 mm 534 W/m2
11:44 16.7 °C 9.4 °C 1015.8 hPa NW 9.5 km/h 32.2 km/h 62.3% 0 mm 573 W/m2
11:49 17 °C 9.2 °C 1015.8 hPa NW 13.5 km/h 32.2 km/h 60% 0 mm 350 W/m2
11:54 17.1 °C 8.8 °C 1015.8 hPa NW 18.5 km/h 37 km/h 58.2% 0 mm 258 W/m2
11:59 16.8 °C 8.2 °C 1015.8 hPa WNW 18.7 km/h 41.8 km/h 57% 0 mm 113 W/m2
12:00 16.6 °C 8 °C 1015.8 hPa NW 3.2 km/h 41.8 km/h 57% 0 mm 77 W/m2
12:09 16.2 °C 7.7 °C 1015.8 hPa WNW 14.5 km/h 30.6 km/h 57% 0 mm 197 W/m2
12:14 16.2 °C 7.9 °C 1015.8 hPa WNW 10.5 km/h 30.6 km/h 57.8% 0 mm 359 W/m2
12:19 16.2 °C 7.9 °C 1015.8 hPa WNW 8.2 km/h 30.6 km/h 58% 0 mm 338 W/m2
12:24 16.3 °C 7.9 °C 1015.8 hPa WNW 10.5 km/h 30.6 km/h 57.4% 0 mm 176 W/m2
12:29 16.4 °C 8.2 °C 1015.8 hPa WNW 4.5 km/h 30.6 km/h 58.3% 0 mm 371 W/m2
12:34 16.5 °C 8.1 °C 1015.8 hPa WNW 5.8 km/h 30.6 km/h 57.4% 0 mm 517 W/m2
12:39 16.7 °C 8.3 °C 1015.8 hPa NW 4.3 km/h 20.9 km/h 57.6% 0 mm 290 W/m2
12:44 16.8 °C 8.3 °C 1015.8 hPa WNW 11.1 km/h 25.7 km/h 57.2% 0 mm 406 W/m2
12:49 16.7 °C 7.4 °C 1015.8 hPa NW 11.3 km/h 35.4 km/h 54.2% 0 mm 406 W/m2
12:54 16.6 °C 7.3 °C 1015.8 hPa NW 11.4 km/h 35.4 km/h 54.4% 0 mm 153 W/m2
12:59 16.5 °C 7.1 °C 1015.8 hPa NW 6.6 km/h 35.4 km/h 53.6% 0 mm 153 W/m2
13:04 16.4 °C 7 °C 1015.8 hPa WNW 10.3 km/h 35.4 km/h 53.4% 0 mm 329 W/m2
13:09 16.5 °C 6.9 °C 1015.8 hPa NW 8 km/h 27.4 km/h 53.1% 0 mm 149 W/m2
13:14 16.5 °C 6.9 °C 1015.8 hPa WNW 6.4 km/h 27.4 km/h 53% 0 mm 385 W/m2
13:19 16.6 °C 6.2 °C 1015.8 hPa NW 8.7 km/h 27.4 km/h 50.4% 0 mm 339 W/m2
13:24 16.6 °C 6.1 °C 1015.8 hPa WNW 8.5 km/h 27.4 km/h 49.9% 0 mm 494 W/m2
13:29 16.7 °C 5.4 °C 1015.8 hPa NW 10.5 km/h 27.4 km/h 47.6% 0 mm 313 W/m2
13:34 16.7 °C 5.3 °C 1015.8 hPa NW 8.4 km/h 27.4 km/h 46.9% 0 mm 318 W/m2
13:39 16.6 °C 4.8 °C 1015.8 hPa NW 10 km/h 25.7 km/h 45.5% 0 mm 318 W/m2
13:44 16.6 °C 4.9 °C 1015.8 hPa NW 6.8 km/h 25.7 km/h 46% 0 mm 332 W/m2
13:49 16.7 °C 5.1 °C 1015.8 hPa NW 3.4 km/h 25.7 km/h 46.4% 0 mm 401 W/m2
13:54 16.8 °C 5.2 °C 1015.8 hPa WNW 10.1 km/h 32.2 km/h 46.2% 0 mm 371 W/m2
13:59 16.7 °C 4.1 °C 1015.8 hPa WNW 14.6 km/h 32.2 km/h 42.8% 0 mm 323 W/m2
14:04 16.6 °C 4 °C 1016.1 hPa WNW 16.6 km/h 32.2 km/h 43.3% 0 mm 323 W/m2
14:09 16.3 °C 3.7 °C 1016.1 hPa WNW 9 km/h 29 km/h 42.7% 0 mm 202 W/m2
14:14 16.3 °C 4 °C 1016.1 hPa WNW 9.5 km/h 29 km/h 43.8% 0 mm 232 W/m2
14:19 16.3 °C 3.9 °C 1016.1 hPa WNW 9.2 km/h 29 km/h 43.5% 0 mm 179 W/m2
14:24 16.3 °C 3.9 °C 1016.1 hPa WNW 8 km/h 29 km/h 43.7% 0 mm 192 W/m2
14:29 16.3 °C 3.9 °C 1016.1 hPa WNW 7.2 km/h 29 km/h 43.8% 0 mm 111 W/m2
14:34 16.3 °C 3.7 °C 1016.5 hPa NW 9.7 km/h 29 km/h 42.9% 0 mm 32 W/m2
14:39 16.2 °C 3.3 °C 1016.5 hPa NW 7.9 km/h 24.1 km/h 42.1% 0 mm 30 W/m2
14:44 16.2 °C 3.6 °C 1016.5 hPa NW 6.3 km/h 25.7 km/h 42.8% 0 mm 28 W/m2
14:49 16.1 °C 3.3 °C 1016.5 hPa NW 11.4 km/h 25.7 km/h 42.3% 0 mm 28 W/m2
14:54 16.1 °C 2.7 °C 1016.8 hPa NW 8.2 km/h 25.7 km/h 40.7% 0 mm 26 W/m2
14:59 16.2 °C 2.7 °C 1016.8 hPa NW 4.7 km/h 25.7 km/h 40.3% 0 mm 26 W/m2
15:04 16.1 °C 2.8 °C 1016.8 hPa WNW 1.3 km/h 25.7 km/h 40.6% 0 mm 25 W/m2
15:09 16.1 °C 2.1 °C 1016.8 hPa NW 6 km/h 19.3 km/h 38.9% 0 mm 25 W/m2
15:14 16.1 °C 1.7 °C 1016.8 hPa WNW 6.6 km/h 22.5 km/h 38% 0 mm 23 W/m2
15:19 15.9 °C 1.7 °C 1016.8 hPa WNW 9 km/h 25.7 km/h 38% 0 mm 23 W/m2
15:24 15.9 °C 1.1 °C 1017.2 hPa NW 8.2 km/h 25.7 km/h 36.6% 0 mm 21 W/m2
15:29 15.8 °C 0.8 °C 1017.2 hPa NW 10 km/h 25.7 km/h 36% 0 mm 21 W/m2
15:34 15.8 °C 0.7 °C 1017.2 hPa WNW 7.6 km/h 25.7 km/h 35.7% 0 mm 19 W/m2
15:39 15.8 °C 0.7 °C 1017.2 hPa WNW 8.7 km/h 22.5 km/h 36% 0 mm 19 W/m2
15:44 15.7 °C 0.7 °C 1017.5 hPa NW 3.7 km/h 22.5 km/h 36% 0 mm 18 W/m2
15:49 15.6 °C 0.4 °C 1017.5 hPa NW 1.4 km/h 22.5 km/h 35.6% 0 mm 18 W/m2
15:54 15.6 °C 0.1 °C 1017.5 hPa NW 1.3 km/h 22.5 km/h 35% 0 mm 16 W/m2
15:59 15.4 °C -0.2 °C 1017.8 hPa WNW 3.4 km/h 22.5 km/h 34.4% 0 mm 12 W/m2
16:00 15.3 °C -0.4 °C 1017.8 hPa WNW 4.8 km/h 22.5 km/h 34% 0 mm 11 W/m2
16:09 15.1 °C -1.9 °C 1017.8 hPa NW 12.2 km/h 33.8 km/h 31% 0 mm 11 W/m2
16:14 14.9 °C -2.5 °C 1017.8 hPa WNW 7.6 km/h 33.8 km/h 30% 0 mm 9 W/m2
16:19 14.8 °C -2.6 °C 1018.2 hPa WNW 5.1 km/h 33.8 km/h 30% 0 mm 9 W/m2
16:24 14.6 °C -2.6 °C 1018.2 hPa WNW 2.7 km/h 33.8 km/h 30.3% 0 mm 7 W/m2
16:29 14.5 °C -2.5 °C 1018.2 hPa NW 1.1 km/h 33.8 km/h 30.8% 0 mm 5 W/m2
16:34 14.4 °C -2.3 °C 1018.5 hPa NW 0.2 km/h 33.8 km/h 31.5% 0 mm 0 W/m2
16:39 14.2 °C -2.3 °C 1018.8 hPa NW 0.6 km/h 3.2 km/h 31.8% 0 mm 0 W/m2
16:44 14.1 °C -2.4 °C 1018.8 hPa NW 1.6 km/h 9.7 km/h 32% 0 mm 0 W/m2
16:49 13.9 °C -2.2 °C 1019.2 hPa NW 0.5 km/h 9.7 km/h 32.8% 0 mm 0 W/m2
16:54 13.8 °C -1.9 °C 1019.2 hPa NW 0.2 km/h 9.7 km/h 33.9% 0 mm 0 W/m2
16:59 13.6 °C -1.7 °C 1019.5 hPa NW 0.5 km/h 9.7 km/h 34.7% 0 mm 0 W/m2
17:04 13.4 °C -1.7 °C 1019.5 hPa WNW 1.8 km/h 9.7 km/h 35% 0 mm 0 W/m2
17:09 13.2 °C -1.6 °C 1019.5 hPa NW 1.6 km/h 11.3 km/h 35.9% 0 mm 0 W/m2
17:14 13.1 °C -1.9 °C 1019.5 hPa WNW 1 km/h 11.3 km/h 35.4% 0 mm 0 W/m2
17:19 12.9 °C -1.8 °C 1019.9 hPa WNW 0.6 km/h 11.3 km/h 36% 0 mm 0 W/m2
17:24 12.8 °C -1.8 °C 1019.9 hPa NW 2.1 km/h 11.3 km/h 36.2% 0 mm 0 W/m2
17:29 12.7 °C -1.8 °C 1020.2 hPa NW 2.3 km/h 11.3 km/h 36.4% 0 mm 0 W/m2
17:34 12.6 °C -1.8 °C 1020.2 hPa NW 0.5 km/h 11.3 km/h 36.7% 0 mm 0 W/m2
17:39 12.5 °C -1.8 °C 1020.5 hPa NW 0.2 km/h 3.2 km/h 37% 0 mm 0 W/m2
17:44 12.4 °C -1.9 °C 1020.5 hPa Calm   3.2 km/h 37% 0 mm 0 W/m2
17:49 12.3 °C -1.7 °C 1020.5 hPa Calm   3.2 km/h 37.7% 0 mm 0 W/m2
17:54 12.1 °C -1.8 °C 1020.5 hPa NW 0.2 km/h 3.2 km/h 38% 0 mm 0 W/m2
17:59 11.9 °C -1.8 °C 1020.5 hPa Calm   3.2 km/h 38.3% 0 mm 0 W/m2
18:04 11.7 °C -1.6 °C 1020.5 hPa NW 0.2 km/h 3.2 km/h 39.6% 0 mm 0 W/m2
18:09 11.5 °C -1.6 °C 1020.5 hPa Calm   1.6 km/h 40.1% 0 mm 0 W/m2
18:14 11.3 °C -1.5 °C 1020.5 hPa NW 0.5 km/h 1.6 km/h 40.8% 0 mm 0 W/m2
18:19 11.2 °C -1.4 °C 1020.5 hPa NW 0.3 km/h 1.6 km/h 41.5% 0 mm 0 W/m2
18:24 11.1 °C -1.4 °C 1020.5 hPa NW 0.6 km/h 3.2 km/h 41.8% 0 mm 0 W/m2
18:29 10.9 °C -1.5 °C 1020.5 hPa NW 0.6 km/h 3.2 km/h 42% 0 mm 0 W/m2
18:34 10.8 °C -1.5 °C 1020.9 hPa NW 0.6 km/h 3.2 km/h 42.2% 0 mm 0 W/m2
18:39 10.7 °C -1.1 °C 1020.9 hPa WNW 2.1 km/h 11.3 km/h 44% 0 mm 0 W/m2
18:44 10.5 °C -0.9 °C 1020.9 hPa West 1.4 km/h 11.3 km/h 45% 0 mm 0 W/m2
18:49 10.3 °C -0.8 °C 1020.9 hPa West 3.1 km/h 12.9 km/h 45.8% 0 mm 0 W/m2
18:54 10.3 °C -1.1 °C 1020.9 hPa West 4 km/h 19.3 km/h 45% 0 mm 0 W/m2
18:59 10.4 °C -1 °C 1020.9 hPa WNW 4.3 km/h 19.3 km/h 45% 0 mm 0 W/m2
19:00 10.5 °C -0.9 °C 1020.9 hPa WNW 3.2 km/h 19.3 km/h 45% 0 mm 0 W/m2
19:30 10.8 °C -0.4 °C 1021.6 hPa WNW 3.2 km/h 24.1 km/h 46% 0 mm 0 W/m2
20:04 10.6 °C -0.5 °C 1021.9 hPa WNW 0.3 km/h 24.1 km/h 46% 0 mm 0 W/m2
20:09 10.6 °C -0.6 °C 1021.9 hPa WNW 1.1 km/h 8 km/h 46% 0 mm 0 W/m2
20:14 10.4 °C -0.6 °C 1021.9 hPa NW 2.4 km/h 9.7 km/h 46.5% 0 mm 0 W/m2
20:19 10.3 °C -0.7 °C 1021.9 hPa NW 0.8 km/h 9.7 km/h 46.2% 0 mm 0 W/m2
20:24 10.3 °C -0.6 °C 1021.9 hPa NW 0.3 km/h 9.7 km/h 47% 0 mm 0 W/m2
20:29 10.2 °C -0.6 °C 1021.9 hPa NW 1 km/h 9.7 km/h 47% 0 mm 0 W/m2
20:34 10.2 °C -0.6 °C 1021.9 hPa NW 1.8 km/h 9.7 km/h 47.4% 0 mm 0 W/m2
20:39 10.1 °C -0.6 °C 1021.9 hPa WNW 1.1 km/h 6.4 km/h 47.6% 0 mm 0 W/m2
20:44 9.9 °C -0.6 °C 1021.9 hPa WNW 1.1 km/h 6.4 km/h 47.8% 0 mm 0 W/m2
20:49 9.8 °C -0.7 °C 1021.9 hPa West 0.2 km/h 6.4 km/h 48% 0 mm 0 W/m2
20:54 9.8 °C -0.7 °C 1021.9 hPa Calm   6.4 km/h 48.2% 0 mm 0 W/m2
20:59 9.7 °C -0.2 °C 1021.9 hPa Calm   6.4 km/h 49.9% 0 mm 0 W/m2
21:04 9.5 °C -0.4 °C 1021.9 hPa Calm   6.4 km/h 50% 0 mm 0 W/m2
21:09 9.3 °C -0.6 °C 1022.2 hPa Calm     50% 0 mm 0 W/m2
21:14 9.2 °C -0.7 °C 1022.2 hPa WNW 0.2 km/h 1.6 km/h 50% 0 mm 0 W/m2
21:19 9.2 °C -0.6 °C 1022.2 hPa WNW 0.5 km/h 4.8 km/h 50.6% 0 mm 0 W/m2
21:24 9.2 °C -0.2 °C 1021.9 hPa NW 0.5 km/h 6.4 km/h 51.9% 0 mm 0 W/m2
21:29 9.1 °C -0.4 °C 1022.2 hPa Calm   6.4 km/h 51.3% 0 mm 0 W/m2
21:34 9 °C -0.3 °C 1022.2 hPa Calm   6.4 km/h 52% 0 mm 0 W/m2
21:39 8.9 °C -0.4 °C 1022.2 hPa Calm     52% 0 mm 0 W/m2
21:44 8.8 °C -0.2 °C 1022.6 hPa NW 0.3 km/h 3.2 km/h 52.9% 0 mm 0 W/m2
21:49 8.8 °C -0.1 °C 1022.6 hPa Calm   3.2 km/h 53.7% 0 mm 0 W/m2
21:54 8.7 °C 0.2 °C 1022.6 hPa Calm   3.2 km/h 55.5% 0 mm 0 W/m2
21:59 8.4 °C 0.1 °C 1022.6 hPa Calm   3.2 km/h 55.7% 0 mm 0 W/m2
22:04 8.3 °C -0.2 °C 1022.6 hPa Calm   3.2 km/h 55.4% 0 mm 0 W/m2
22:09 8.1 °C -0.3 °C 1022.6 hPa Calm     55.2% 0 mm 0 W/m2
22:14 8 °C -0.1 °C 1022.2 hPa Calm     56.9% 0 mm 0 W/m2
22:19 7.9 °C -0.2 °C 1022.2 hPa Calm     56.8% 0 mm 0 W/m2
22:24 7.7 °C -0.3 °C 1022.2 hPa Calm     57% 0 mm 0 W/m2
22:29 7.6 °C -0.3 °C 1022.6 hPa Calm     57.5% 0 mm 0 W/m2
22:34 7.4 °C 0.3 °C 1022.6 hPa Calm   1.6 km/h 60.7% 0 mm 0 W/m2
22:39 7.2 °C 0.2 °C 1022.6 hPa Calm   1.6 km/h 61% 0 mm 0 W/m2
22:44 7 °C 0 °C 1022.6 hPa Calm   1.6 km/h 61% 0 mm 0 W/m2
22:49 6.8 °C -0.1 °C 1022.9 hPa NW 0.3 km/h 3.2 km/h 61.5% 0 mm 0 W/m2
22:54 6.7 °C -0.1 °C 1022.9 hPa Calm   3.2 km/h 62% 0 mm 0 W/m2
22:59 6.6 °C -0.1 °C 1022.9 hPa Calm   3.2 km/h 62.6% 0 mm 0 W/m2
23:04 6.3 °C 0.2 °C 1023.2 hPa Calm     65% 0 mm 0 W/m2
23:09 6.2 °C 0.2 °C 1023.6 hPa Calm   1.6 km/h 65.6% 0 mm 0 W/m2
23:14 5.8 °C 0.2 °C 1023.6 hPa Calm   1.6 km/h 66.8% 0 mm 0 W/m2
23:19 5.6 °C 0.3 °C 1023.6 hPa Calm   1.6 km/h 68.8% 0 mm 0 W/m2
23:24 5.4 °C 0.5 °C 1023.6 hPa Calm   1.6 km/h 70.6% 0 mm 0 W/m2
23:29 5.3 °C 0.5 °C 1023.9 hPa Calm   1.6 km/h 71.2% 0 mm 0 W/m2
23:34 5.1 °C 0.6 °C 1023.6 hPa Calm   1.6 km/h 72.5% 0 mm 0 W/m2
23:39 5 °C 0.6 °C 1023.9 hPa Calm     73% 0 mm 0 W/m2
23:44 4.9 °C 0.6 °C 1023.9 hPa Calm     73.5% 0 mm 0 W/m2
23:49 4.8 °C 0.6 °C 1023.9 hPa Calm     74% 0 mm 0 W/m2
23:54 4.8 °C 0.4 °C 1023.9 hPa Calm     73.3% 0 mm 0 W/m2
23:59 4.8 °C 0.4 °C 1024.3 hPa Calm     73.2% 0 mm 0 W/m2
Hartford County Weather
Compliments of Weather Underground - 2 mb